sensor_id;sensor_type;location;lat;lon;timestamp;pressure;altitude;pressure_sealevel;temperature;humidity
15487;BME280;7845;53.698;10.078;2023-02-28T00:00:46;102460.78;;;5.23;100.00
15487;BME280;7845;53.698;10.078;2023-02-28T00:03:12;102458.94;;;5.20;100.00
15487;BME280;7845;53.698;10.078;2023-02-28T00:05:37;102461.53;;;5.20;100.00
15487;BME280;7845;53.698;10.078;2023-02-28T00:08:03;102459.78;;;5.19;100.00
15487;BME280;7845;53.698;10.078;2023-02-28T00:10:32;102464.84;;;5.16;100.00
15487;BME280;7845;53.698;10.078;2023-02-28T00:13:04;102450.06;;;5.14;100.00
15487;BME280;7845;53.698;10.078;2023-02-28T00:15:31;102454.09;;;5.07;100.00
15487;BME280;7845;53.698;10.078;2023-02-28T00:17:58;102444.31;;;5.00;100.00
15487;BME280;7845;53.698;10.078;2023-02-28T00:20:25;102450.03;;;4.93;100.00
15487;BME280;7845;53.698;10.078;2023-02-28T00:22:53;102460.88;;;4.84;100.00
15487;BME280;7845;53.698;10.078;2023-02-28T00:25:21;102447.69;;;4.78;100.00
15487;BME280;7845;53.698;10.078;2023-02-28T00:27:47;102452.19;;;4.82;100.00
15487;BME280;7845;53.698;10.078;2023-02-28T00:30:17;102450.41;;;4.81;100.00
15487;BME280;7845;53.698;10.078;2023-02-28T00:32:43;102447.78;;;4.80;100.00
15487;BME280;7845;53.698;10.078;2023-02-28T00:35:09;102452.94;;;4.80;100.00
15487;BME280;7845;53.698;10.078;2023-02-28T00:37:35;102457.84;;;4.74;100.00
15487;BME280;7845;53.698;10.078;2023-02-28T00:40:01;102447.50;;;4.74;100.00
15487;BME280;7845;53.698;10.078;2023-02-28T00:42:31;102447.63;;;4.77;100.00
15487;BME280;7845;53.698;10.078;2023-02-28T00:44:57;102450.91;;;4.73;100.00
15487;BME280;7845;53.698;10.078;2023-02-28T00:47:22;102444.84;;;4.72;100.00
15487;BME280;7845;53.698;10.078;2023-02-28T00:49:48;102453.31;;;4.68;100.00
15487;BME280;7845;53.698;10.078;2023-02-28T00:52:13;102457.50;;;4.66;100.00
15487;BME280;7845;53.698;10.078;2023-02-28T00:54:40;102454.19;;;4.69;100.00
15487;BME280;7845;53.698;10.078;2023-02-28T00:57:05;102449.03;;;4.69;100.00
15487;BME280;7845;53.698;10.078;2023-02-28T00:59:31;102456.03;;;4.71;100.00
15487;BME280;7845;53.698;10.078;2023-02-28T01:01:56;102462.38;;;4.59;100.00
15487;BME280;7845;53.698;10.078;2023-02-28T01:04:22;102460.81;;;4.62;100.00
15487;BME280;7845;53.698;10.078;2023-02-28T01:06:47;102463.56;;;4.67;100.00
15487;BME280;7845;53.698;10.078;2023-02-28T01:09:13;102471.41;;;4.68;100.00
15487;BME280;7845;53.698;10.078;2023-02-28T01:11:40;102464.41;;;4.66;100.00
15487;BME280;7845;53.698;10.078;2023-02-28T01:14:07;102466.16;;;4.67;100.00
15487;BME280;7845;53.698;10.078;2023-02-28T01:16:33;102462.09;;;4.72;100.00
15487;BME280;7845;53.698;10.078;2023-02-28T01:18:59;102461.38;;;4.76;100.00
15487;BME280;7845;53.698;10.078;2023-02-28T01:21:24;102463.91;;;4.74;100.00
15487;BME280;7845;53.698;10.078;2023-02-28T01:23:50;102460.56;;;4.77;100.00
15487;BME280;7845;53.698;10.078;2023-02-28T01:26:21;102457.28;;;4.81;100.00
15487;BME280;7845;53.698;10.078;2023-02-28T01:28:49;102458.38;;;4.86;100.00
15487;BME280;7845;53.698;10.078;2023-02-28T01:31:17;102457.50;;;4.85;100.00
15487;BME280;7845;53.698;10.078;2023-02-28T01:33:43;102467.75;;;4.84;100.00
15487;BME280;7845;53.698;10.078;2023-02-28T01:36:19;102468.19;;;4.74;100.00
15487;BME280;7845;53.698;10.078;2023-02-28T01:38:45;102470.66;;;4.71;100.00
15487;BME280;7845;53.698;10.078;2023-02-28T01:41:19;102467.94;;;4.68;100.00
15487;BME280;7845;53.698;10.078;2023-02-28T01:46:11;102464.53;;;4.69;100.00
15487;BME280;7845;53.698;10.078;2023-02-28T01:48:41;102455.06;;;4.69;100.00
15487;BME280;7845;53.698;10.078;2023-02-28T01:51:15;102458.63;;;4.71;100.00
15487;BME280;7845;53.698;10.078;2023-02-28T01:53:47;102449.16;;;4.72;100.00
15487;BME280;7845;53.698;10.078;2023-02-28T01:56:17;102450.72;;;4.68;100.00
15487;BME280;7845;53.698;10.078;2023-02-28T01:58:49;102458.09;;;4.59;100.00
15487;BME280;7845;53.698;10.078;2023-02-28T02:01:16;102461.22;;;4.52;100.00
15487;BME280;7845;53.698;10.078;2023-02-28T02:03:48;102462.84;;;4.50;100.00
15487;BME280;7845;53.698;10.078;2023-02-28T02:06:25;102458.44;;;4.47;100.00
15487;BME280;7845;53.698;10.078;2023-02-28T02:08:51;102454.13;;;4.48;100.00
15487;BME280;7845;53.698;10.078;2023-02-28T02:11:19;102444.88;;;4.53;100.00
15487;BME280;7845;53.698;10.078;2023-02-28T02:22:17;102431.72;;;4.68;100.00
15487;BME280;7845;53.698;10.078;2023-02-28T02:27:34;102431.09;;;4.73;100.00
15487;BME280;7845;53.698;10.078;2023-02-28T02:33:18;102434.75;;;4.78;100.00
15487;BME280;7845;53.698;10.078;2023-02-28T02:35:51;102433.16;;;4.80;100.00
15487;BME280;7845;53.698;10.078;2023-02-28T02:38:33;102428.00;;;4.82;100.00
15487;BME280;7845;53.698;10.078;2023-02-28T02:43:58;102441.84;;;4.82;100.00
15487;BME280;7845;53.698;10.078;2023-02-28T02:46:37;102441.66;;;4.78;100.00
15487;BME280;7845;53.698;10.078;2023-02-28T02:49:06;102448.56;;;4.79;100.00
15487;BME280;7845;53.698;10.078;2023-02-28T02:51:35;102451.28;;;4.82;100.00
15487;BME280;7845;53.698;10.078;2023-02-28T02:54:25;102446.13;;;4.82;100.00
15487;BME280;7845;53.698;10.078;2023-02-28T02:56:56;102454.91;;;4.66;100.00
15487;BME280;7845;53.698;10.078;2023-02-28T02:59:23;102453.19;;;4.46;100.00
15487;BME280;7845;53.698;10.078;2023-02-28T03:01:53;102446.81;;;4.38;100.00
15487;BME280;7845;53.698;10.078;2023-02-28T03:04:22;102443.31;;;4.37;100.00
15487;BME280;7845;53.698;10.078;2023-02-28T03:06:49;102442.31;;;4.34;100.00
15487;BME280;7845;53.698;10.078;2023-02-28T03:09:18;102434.97;;;4.24;100.00
15487;BME280;7845;53.698;10.078;2023-02-28T03:11:43;102437.63;;;4.25;100.00
15487;BME280;7845;53.698;10.078;2023-02-28T03:15:24;102433.34;;;4.26;100.00
15487;BME280;7845;53.698;10.078;2023-02-28T03:25:12;102435.91;;;4.26;100.00
15487;BME280;7845;53.698;10.078;2023-02-28T03:27:55;102440.81;;;4.20;100.00
15487;BME280;7845;53.698;10.078;2023-02-28T03:30:56;102442.38;;;4.16;100.00
15487;BME280;7845;53.698;10.078;2023-02-28T03:33:28;102444.53;;;4.07;100.00
15487;BME280;7845;53.698;10.078;2023-02-28T03:35:58;102452.09;;;4.03;100.00
15487;BME280;7845;53.698;10.078;2023-02-28T03:41:10;102453.66;;;3.99;100.00
15487;BME280;7845;53.698;10.078;2023-02-28T03:43:41;102458.00;;;4.00;100.00
15487;BME280;7845;53.698;10.078;2023-02-28T03:46:12;102454.59;;;4.01;100.00
15487;BME280;7845;53.698;10.078;2023-02-28T03:48:42;102446.84;;;4.01;100.00
15487;BME280;7845;53.698;10.078;2023-02-28T03:51:13;102465.56;;;3.78;100.00
15487;BME280;7845;53.698;10.078;2023-02-28T03:53:45;102469.66;;;3.55;100.00
15487;BME280;7845;53.698;10.078;2023-02-28T03:56:31;102469.72;;;3.39;100.00
15487;BME280;7845;53.698;10.078;2023-02-28T04:01:43;102461.03;;;3.37;100.00
15487;BME280;7845;53.698;10.078;2023-02-28T04:04:09;102456.81;;;3.39;100.00
15487;BME280;7845;53.698;10.078;2023-02-28T04:06:35;102455.78;;;3.35;100.00
15487;BME280;7845;53.698;10.078;2023-02-28T04:09:02;102460.50;;;3.26;100.00
15487;BME280;7845;53.698;10.078;2023-02-28T04:11:45;102458.06;;;3.29;100.00
15487;BME280;7845;53.698;10.078;2023-02-28T04:14:14;102449.53;;;3.30;100.00
15487;BME280;7845;53.698;10.078;2023-02-28T04:16:41;102451.31;;;3.31;100.00
15487;BME280;7845;53.698;10.078;2023-02-28T04:19:08;102457.16;;;3.29;100.00
15487;BME280;7845;53.698;10.078;2023-02-28T04:21:40;102459.53;;;3.24;100.00
15487;BME280;7845;53.698;10.078;2023-02-28T04:24:07;102463.06;;;3.09;100.00
15487;BME280;7845;53.698;10.078;2023-02-28T04:26:36;102465.97;;;2.99;100.00
15487;BME280;7845;53.698;10.078;2023-02-28T04:29:05;102462.53;;;2.98;100.00
15487;BME280;7845;53.698;10.078;2023-02-28T04:31:31;102465.81;;;2.96;100.00
15487;BME280;7845;53.698;10.078;2023-02-28T04:33:57;102456.50;;;2.98;100.00
15487;BME280;7845;53.698;10.078;2023-02-28T04:36:23;102458.34;;;3.00;100.00
15487;BME280;7845;53.698;10.078;2023-02-28T04:38:48;102455.75;;;3.00;100.00
15487;BME280;7845;53.698;10.078;2023-02-28T04:41:14;102464.38;;;3.01;100.00
15487;BME280;7845;53.698;10.078;2023-02-28T04:43:40;102460.97;;;3.02;100.00
15487;BME280;7845;53.698;10.078;2023-02-28T04:46:06;102456.66;;;3.01;100.00
15487;BME280;7845;53.698;10.078;2023-02-28T04:48:35;102454.84;;;3.00;100.00
15487;BME280;7845;53.698;10.078;2023-02-28T04:51:02;102449.66;;;2.98;100.00
15487;BME280;7845;53.698;10.078;2023-02-28T04:53:29;102452.22;;;2.98;100.00
15487;BME280;7845;53.698;10.078;2023-02-28T04:55:55;102452.88;;;2.94;100.00
15487;BME280;7845;53.698;10.078;2023-02-28T04:58:21;102451.03;;;2.92;100.00
15487;BME280;7845;53.698;10.078;2023-02-28T05:00:48;102452.34;;;2.84;100.00
15487;BME280;7845;53.698;10.078;2023-02-28T05:03:13;102465.72;;;2.76;100.00
15487;BME280;7845;53.698;10.078;2023-02-28T05:05:39;102468.72;;;2.68;100.00
15487;BME280;7845;53.698;10.078;2023-02-28T05:08:05;102465.00;;;2.63;100.00
15487;BME280;7845;53.698;10.078;2023-02-28T05:10:31;102465.81;;;2.62;100.00
15487;BME280;7845;53.698;10.078;2023-02-28T05:12:57;102458.88;;;2.61;100.00
15487;BME280;7845;53.698;10.078;2023-02-28T05:15:22;102465.00;;;2.63;100.00
15487;BME280;7845;53.698;10.078;2023-02-28T05:17:47;102459.69;;;2.60;100.00
15487;BME280;7845;53.698;10.078;2023-02-28T05:20:13;102452.78;;;2.59;100.00
15487;BME280;7845;53.698;10.078;2023-02-28T05:22:40;102457.94;;;2.59;100.00
15487;BME280;7845;53.698;10.078;2023-02-28T05:25:06;102458.56;;;2.55;100.00
15487;BME280;7845;53.698;10.078;2023-02-28T05:27:32;102471.06;;;2.31;100.00
15487;BME280;7845;53.698;10.078;2023-02-28T05:29:57;102479.59;;;2.14;100.00
15487;BME280;7845;53.698;10.078;2023-02-28T05:32:24;102470.25;;;2.16;100.00
15487;BME280;7845;53.698;10.078;2023-02-28T05:34:49;102482.81;;;2.10;100.00
15487;BME280;7845;53.698;10.078;2023-02-28T05:37:15;102478.53;;;2.10;100.00
15487;BME280;7845;53.698;10.078;2023-02-28T05:39:42;102467.63;;;2.14;100.00
15487;BME280;7845;53.698;10.078;2023-02-28T05:42:08;102468.91;;;2.22;100.00
15487;BME280;7845;53.698;10.078;2023-02-28T05:44:34;102468.25;;;2.27;100.00
15487;BME280;7845;53.698;10.078;2023-02-28T05:46:59;102461.56;;;2.30;100.00
15487;BME280;7845;53.698;10.078;2023-02-28T05:49:25;102466.00;;;2.33;100.00
15487;BME280;7845;53.698;10.078;2023-02-28T05:51:50;102462.59;;;2.34;100.00
15487;BME280;7845;53.698;10.078;2023-02-28T05:54:16;102467.75;;;2.34;100.00
15487;BME280;7845;53.698;10.078;2023-02-28T05:56:41;102468.66;;;2.34;100.00
15487;BME280;7845;53.698;10.078;2023-02-28T05:59:09;102472.13;;;2.35;100.00
15487;BME280;7845;53.698;10.078;2023-02-28T06:01:42;102472.13;;;2.35;100.00
15487;BME280;7845;53.698;10.078;2023-02-28T06:04:17;102470.44;;;2.35;100.00
15487;BME280;7845;53.698;10.078;2023-02-28T06:06:48;102468.66;;;2.34;100.00
15487;BME280;7845;53.698;10.078;2023-02-28T06:09:13;102472.91;;;2.34;100.00
15487;BME280;7845;53.698;10.078;2023-02-28T06:11:39;102475.59;;;2.35;100.00
15487;BME280;7845;53.698;10.078;2023-02-28T06:14:05;102467.75;;;2.34;100.00
15487;BME280;7845;53.698;10.078;2023-02-28T06:16:32;102469.53;;;2.35;100.00
15487;BME280;7845;53.698;10.078;2023-02-28T06:18:59;102471.06;;;2.31;100.00
15487;BME280;7845;53.698;10.078;2023-02-28T06:21:26;102481.31;;;2.30;100.00
15487;BME280;7845;53.698;10.078;2023-02-28T06:23:56;102487.09;;;2.26;100.00
15487;BME280;7845;53.698;10.078;2023-02-28T06:26:21;102485.47;;;2.28;100.00
15487;BME280;7845;53.698;10.078;2023-02-28T06:28:46;102481.22;;;2.28;100.00
15487;BME280;7845;53.698;10.078;2023-02-28T06:31:18;102490.28;;;2.21;100.00
15487;BME280;7845;53.698;10.078;2023-02-28T06:33:46;102490.69;;;2.13;100.00
15487;BME280;7845;53.698;10.078;2023-02-28T06:36:13;102501.22;;;2.01;100.00
15487;BME280;7845;53.698;10.078;2023-02-28T06:38:41;102512.31;;;2.00;100.00
15487;BME280;7845;53.698;10.078;2023-02-28T06:41:08;102506.31;;;2.00;100.00
15487;BME280;7845;53.698;10.078;2023-02-28T06:43:37;102510.38;;;1.96;100.00
15487;BME280;7845;53.698;10.078;2023-02-28T06:46:05;102518.00;;;1.95;100.00
15487;BME280;7845;53.698;10.078;2023-02-28T06:48:31;102513.19;;;2.01;100.00
15487;BME280;7845;53.698;10.078;2023-02-28T06:51:04;102510.97;;;2.07;100.00
15487;BME280;7845;53.698;10.078;2023-02-28T06:53:32;102505.41;;;2.15;100.00
15487;BME280;7845;53.698;10.078;2023-02-28T06:55:58;102508.50;;;2.24;100.00
15487;BME280;7845;53.698;10.078;2023-02-28T06:58:24;102504.31;;;2.27;100.00
15487;BME280;7845;53.698;10.078;2023-02-28T07:00:52;102510.91;;;2.21;100.00
15487;BME280;7845;53.698;10.078;2023-02-28T07:03:18;102505.91;;;2.24;100.00
15487;BME280;7845;53.698;10.078;2023-02-28T07:05:44;102510.34;;;2.27;100.00
15487;BME280;7845;53.698;10.078;2023-02-28T07:08:10;102507.22;;;2.33;100.00
15487;BME280;7845;53.698;10.078;2023-02-28T07:10:38;102507.41;;;2.36;100.00
15487;BME280;7845;53.698;10.078;2023-02-28T07:13:06;102505.94;;;2.41;100.00
15487;BME280;7845;53.698;10.078;2023-02-28T07:15:32;102507.88;;;2.45;100.00
15487;BME280;7845;53.698;10.078;2023-02-28T07:17:57;102513.34;;;2.51;100.00
15487;BME280;7845;53.698;10.078;2023-02-28T07:20:23;102515.38;;;2.56;100.00
15487;BME280;7845;53.698;10.078;2023-02-28T07:22:50;102504.22;;;2.57;100.00
15487;BME280;7845;53.698;10.078;2023-02-28T07:25:22;102512.13;;;2.60;100.00
15487;BME280;7845;53.698;10.078;2023-02-28T07:27:48;102512.28;;;2.63;100.00
15487;BME280;7845;53.698;10.078;2023-02-28T07:30:14;102514.28;;;2.69;100.00
15487;BME280;7845;53.698;10.078;2023-02-28T07:32:40;102506.72;;;2.72;100.00
15487;BME280;7845;53.698;10.078;2023-02-28T07:35:05;102502.69;;;2.77;100.00
15487;BME280;7845;53.698;10.078;2023-02-28T07:37:31;102502.13;;;2.83;100.00
15487;BME280;7845;53.698;10.078;2023-02-28T07:40:06;102503.19;;;2.86;100.00
15487;BME280;7845;53.698;10.078;2023-02-28T07:42:34;102506.72;;;2.88;100.00
15487;BME280;7845;53.698;10.078;2023-02-28T07:45:00;102500.75;;;2.89;100.00
15487;BME280;7845;53.698;10.078;2023-02-28T07:47:26;102507.03;;;2.94;100.00
15487;BME280;7845;53.698;10.078;2023-02-28T07:49:51;102510.66;;;2.98;100.00
15487;BME280;7845;53.698;10.078;2023-02-28T07:52:16;102504.00;;;3.03;100.00
15487;BME280;7845;53.698;10.078;2023-02-28T07:54:42;102503.38;;;3.07;100.00
15487;BME280;7845;53.698;10.078;2023-02-28T07:57:07;102507.69;;;3.08;100.00
15487;BME280;7845;53.698;10.078;2023-02-28T07:59:33;102502.78;;;3.12;100.00
15487;BME280;7845;53.698;10.078;2023-02-28T08:01:58;102503.53;;;3.10;100.00
15487;BME280;7845;53.698;10.078;2023-02-28T08:04:25;102500.56;;;3.20;100.00
15487;BME280;7845;53.698;10.078;2023-02-28T08:06:51;102493.00;;;3.23;100.00
15487;BME280;7845;53.698;10.078;2023-02-28T08:09:19;102496.75;;;3.29;100.00
15487;BME280;7845;53.698;10.078;2023-02-28T08:11:45;102500.31;;;3.31;100.00
15487;BME280;7845;53.698;10.078;2023-02-28T08:14:10;102503.13;;;3.36;100.00
15487;BME280;7845;53.698;10.078;2023-02-28T08:16:35;102506.88;;;3.43;100.00
15487;BME280;7845;53.698;10.078;2023-02-28T08:19:01;102502.81;;;3.48;100.00
15487;BME280;7845;53.698;10.078;2023-02-28T08:21:27;102514.09;;;3.50;100.00
15487;BME280;7845;53.698;10.078;2023-02-28T08:23:52;102505.84;;;3.57;100.00
15487;BME280;7845;53.698;10.078;2023-02-28T08:26:18;102521.59;;;3.61;100.00
15487;BME280;7845;53.698;10.078;2023-02-28T08:28:44;102512.34;;;3.66;100.00
15487;BME280;7845;53.698;10.078;2023-02-28T08:31:11;102521.13;;;3.70;100.00
15487;BME280;7845;53.698;10.078;2023-02-28T08:33:39;102526.66;;;3.77;100.00
15487;BME280;7845;53.698;10.078;2023-02-28T08:36:05;102527.75;;;3.82;100.00
15487;BME280;7845;53.698;10.078;2023-02-28T08:38:31;102539.19;;;3.87;100.00
15487;BME280;7845;53.698;10.078;2023-02-28T08:41:00;102537.72;;;3.92;100.00
15487;BME280;7845;53.698;10.078;2023-02-28T08:43:27;102551.72;;;3.98;100.00
15487;BME280;7845;53.698;10.078;2023-02-28T08:45:57;102565.81;;;4.04;100.00
15487;BME280;7845;53.698;10.078;2023-02-28T08:48:23;102575.50;;;4.08;100.00
15487;BME280;7845;53.698;10.078;2023-02-28T08:51:00;102580.88;;;4.13;100.00
15487;BME280;7845;53.698;10.078;2023-02-28T08:53:26;102585.53;;;4.20;100.00
15487;BME280;7845;53.698;10.078;2023-02-28T08:56:06;102590.03;;;4.24;100.00
15487;BME280;7845;53.698;10.078;2023-02-28T08:58:33;102600.66;;;4.30;100.00
15487;BME280;7845;53.698;10.078;2023-02-28T09:01:00;102618.91;;;4.33;100.00
15487;BME280;7845;53.698;10.078;2023-02-28T09:03:26;102620.94;;;4.40;100.00
15487;BME280;7845;53.698;10.078;2023-02-28T09:05:57;102638.38;;;4.44;100.00
15487;BME280;7845;53.698;10.078;2023-02-28T09:08:26;102660.00;;;4.46;100.00
15487;BME280;7845;53.698;10.078;2023-02-28T09:10:52;102692.22;;;4.53;100.00
15487;BME280;7845;53.698;10.078;2023-02-28T09:13:18;102701.81;;;4.55;100.00
15487;BME280;7845;53.698;10.078;2023-02-28T09:15:43;102705.44;;;4.59;100.00
15487;BME280;7845;53.698;10.078;2023-02-28T09:18:09;102706.50;;;4.64;100.00
15487;BME280;7845;53.698;10.078;2023-02-28T09:20:37;102701.63;;;4.70;100.00
15487;BME280;7845;53.698;10.078;2023-02-28T09:23:03;102721.72;;;4.75;100.00
15487;BME280;7845;53.698;10.078;2023-02-28T09:25:28;102716.69;;;4.78;100.00
15487;BME280;7845;53.698;10.078;2023-02-28T09:27:54;102735.78;;;4.80;100.00
15487;BME280;7845;53.698;10.078;2023-02-28T09:30:19;102750.47;;;4.81;100.00
15487;BME280;7845;53.698;10.078;2023-02-28T09:32:44;102760.22;;;4.87;100.00
15487;BME280;7845;53.698;10.078;2023-02-28T09:35:17;102772.44;;;4.89;100.00
15487;BME280;7845;53.698;10.078;2023-02-28T09:37:43;102781.50;;;4.99;100.00
15487;BME280;7845;53.698;10.078;2023-02-28T09:40:10;102786.66;;;4.99;100.00
15487;BME280;7845;53.698;10.078;2023-02-28T09:42:37;102782.63;;;5.04;100.00
15487;BME280;7845;53.698;10.078;2023-02-28T09:45:10;102792.22;;;5.07;100.00
15487;BME280;7845;53.698;10.078;2023-02-28T09:47:43;102796.13;;;5.16;100.00
15487;BME280;7845;53.698;10.078;2023-02-28T09:50:52;102796.41;;;5.22;100.00
15487;BME280;7845;53.698;10.078;2023-02-28T09:53:35;102796.63;;;5.27;100.00
15487;BME280;7845;53.698;10.078;2023-02-28T09:56:13;102812.09;;;5.25;100.00
15487;BME280;7845;53.698;10.078;2023-02-28T09:58:54;102813.84;;;5.26;100.00
15487;BME280;7845;53.698;10.078;2023-02-28T10:01:42;102815.16;;;5.36;100.00
15487;BME280;7845;53.698;10.078;2023-02-28T10:06:51;102804.34;;;5.44;100.00
15487;BME280;7845;53.698;10.078;2023-02-28T10:09:27;102815.06;;;5.52;100.00
15487;BME280;7845;53.698;10.078;2023-02-28T10:12:00;102810.97;;;5.57;100.00
15487;BME280;7845;53.698;10.078;2023-02-28T10:14:29;102806.19;;;5.66;100.00
15487;BME280;7845;53.698;10.078;2023-02-28T10:19:30;102822.19;;;5.77;100.00
15487;BME280;7845;53.698;10.078;2023-02-28T10:22:04;102824.00;;;5.78;100.00
15487;BME280;7845;53.698;10.078;2023-02-28T10:24:33;102827.59;;;5.81;100.00
15487;BME280;7845;53.698;10.078;2023-02-28T10:27:05;102822.56;;;5.84;100.00
15487;BME280;7845;53.698;10.078;2023-02-28T10:29:32;102819.25;;;5.87;100.00
15487;BME280;7845;53.698;10.078;2023-02-28T10:32:01;102815.16;;;5.92;100.00
15487;BME280;7845;53.698;10.078;2023-02-28T10:34:27;102813.53;;;5.94;100.00
15487;BME280;7845;53.698;10.078;2023-02-28T10:36:53;102805.03;;;5.98;100.00
15487;BME280;7845;53.698;10.078;2023-02-28T10:42:02;102830.28;;;6.02;100.00
15487;BME280;7845;53.698;10.078;2023-02-28T10:44:28;102835.13;;;6.13;100.00
15487;BME280;7845;53.698;10.078;2023-02-28T10:46:53;102825.91;;;6.20;100.00
15487;BME280;7845;53.698;10.078;2023-02-28T10:49:22;102826.84;;;6.22;100.00
15487;BME280;7845;53.698;10.078;2023-02-28T10:51:52;102829.53;;;6.24;100.00
15487;BME280;7845;53.698;10.078;2023-02-28T10:54:21;102831.41;;;6.28;100.00
15487;BME280;7845;53.698;10.078;2023-02-28T10:57:23;102840.19;;;6.31;100.00
15487;BME280;7845;53.698;10.078;2023-02-28T11:00:12;102842.16;;;6.37;100.00
15487;BME280;7845;53.698;10.078;2023-02-28T11:02:39;102839.66;;;6.38;100.00
15487;BME280;7845;53.698;10.078;2023-02-28T11:08:14;102846.19;;;6.49;100.00
15487;BME280;7845;53.698;10.078;2023-02-28T11:10:44;102841.13;;;6.52;100.00
15487;BME280;7845;53.698;10.078;2023-02-28T11:13:19;102847.13;;;6.51;100.00
15487;BME280;7845;53.698;10.078;2023-02-28T11:15:57;102851.63;;;6.55;100.00
15487;BME280;7845;53.698;10.078;2023-02-28T11:18:29;102852.50;;;6.56;100.00
15487;BME280;7845;53.698;10.078;2023-02-28T11:20:57;102859.53;;;6.58;100.00
15487;BME280;7845;53.698;10.078;2023-02-28T11:23:25;102866.88;;;6.68;100.00
15487;BME280;7845;53.698;10.078;2023-02-28T11:25:54;102865.47;;;6.56;100.00
15487;BME280;7845;53.698;10.078;2023-02-28T11:28:33;102850.19;;;6.62;100.00
15487;BME280;7845;53.698;10.078;2023-02-28T11:33:32;102848.34;;;6.80;100.00
15487;BME280;7845;53.698;10.078;2023-02-28T11:38:44;102841.75;;;6.88;100.00
15487;BME280;7845;53.698;10.078;2023-02-28T11:41:26;102846.88;;;6.87;100.00
15487;BME280;7845;53.698;10.078;2023-02-28T11:44:08;102842.81;;;6.93;100.00
15487;BME280;7845;53.698;10.078;2023-02-28T11:46:58;102847.66;;;7.06;100.00
15487;BME280;7845;53.698;10.078;2023-02-28T11:49:43;102843.66;;;7.14;100.00
15487;BME280;7845;53.698;10.078;2023-02-28T11:55:24;102839.59;;;7.21;100.00
15487;BME280;7845;53.698;10.078;2023-02-28T11:58:05;102823.84;;;7.39;100.00
15487;BME280;7845;53.698;10.078;2023-02-28T12:03:54;102817.50;;;7.32;100.00
15487;BME280;7845;53.698;10.078;2023-02-28T12:06:28;102816.56;;;7.52;100.00
15487;BME280;7845;53.698;10.078;2023-02-28T12:09:12;102821.97;;;7.35;95.32
15487;BME280;7845;53.698;10.078;2023-02-28T12:11:51;102821.31;;;7.40;99.58
15487;BME280;7845;53.698;10.078;2023-02-28T12:14:38;102825.78;;;7.44;100.00
15487;BME280;7845;53.698;10.078;2023-02-28T12:25:43;102805.94;;;7.24;94.65
15487;BME280;7845;53.698;10.078;2023-02-28T12:28:17;102796.91;;;7.14;86.86
15487;BME280;7845;53.698;10.078;2023-02-28T12:31:01;102802.94;;;7.36;87.96
15487;BME280;7845;53.698;10.078;2023-02-28T12:33:36;102793.97;;;7.28;86.30
15487;BME280;7845;53.698;10.078;2023-02-28T12:36:17;102786.09;;;7.26;85.91
15487;BME280;7845;53.698;10.078;2023-02-28T12:38:48;102794.97;;;7.31;84.45
15487;BME280;7845;53.698;10.078;2023-02-28T12:41:19;102783.69;;;7.31;83.38
15487;BME280;7845;53.698;10.078;2023-02-28T12:43:57;102786.41;;;7.34;87.57
15487;BME280;7845;53.698;10.078;2023-02-28T12:46:32;102777.28;;;7.21;86.01
15487;BME280;7845;53.698;10.078;2023-02-28T12:49:02;102772.78;;;7.39;88.34
15487;BME280;7845;53.698;10.078;2023-02-28T12:51:29;102777.19;;;7.42;90.27
15487;BME280;7845;53.698;10.078;2023-02-28T12:54:10;102763.38;;;7.43;84.51
15487;BME280;7845;53.698;10.078;2023-02-28T12:56:45;102759.63;;;7.35;84.04
15487;BME280;7845;53.698;10.078;2023-02-28T12:59:34;102758.34;;;7.47;82.30
15487;BME280;7845;53.698;10.078;2023-02-28T13:10:48;102747.00;;;7.69;78.16
15487;BME280;7845;53.698;10.078;2023-02-28T13:13:22;102746.78;;;7.63;75.99
15487;BME280;7845;53.698;10.078;2023-02-28T13:16:07;102744.16;;;7.61;76.94
15487;BME280;7845;53.698;10.078;2023-02-28T13:18:44;102735.69;;;7.67;78.57
15487;BME280;7845;53.698;10.078;2023-02-28T13:21:29;102736.13;;;7.55;77.44
15487;BME280;7845;53.698;10.078;2023-02-28T13:23:58;102736.50;;;7.66;77.83
15487;BME280;7845;53.698;10.078;2023-02-28T13:45:20;102744.19;;;7.87;83.43
15487;BME280;7845;53.698;10.078;2023-02-28T13:47:59;102732.78;;;7.83;80.18
15487;BME280;7845;53.698;10.078;2023-02-28T13:53:26;102726.66;;;7.81;76.81
15487;BME280;7845;53.698;10.078;2023-02-28T13:58:41;102734.28;;;7.76;76.85
15487;BME280;7845;53.698;10.078;2023-02-28T14:06:38;102737.38;;;7.90;80.23
15487;BME280;7845;53.698;10.078;2023-02-28T14:11:40;102748.78;;;7.94;81.76
15487;BME280;7845;53.698;10.078;2023-02-28T14:14:08;102755.00;;;7.99;83.51
15487;BME280;7845;53.698;10.078;2023-02-28T14:16:41;102748.03;;;7.98;84.09
15487;BME280;7845;53.698;10.078;2023-02-28T14:19:15;102747.88;;;7.93;81.75
15487;BME280;7845;53.698;10.078;2023-02-28T14:25:04;102752.09;;;7.90;83.20
15487;BME280;7845;53.698;10.078;2023-02-28T14:38:27;102739.28;;;7.96;76.82
15487;BME280;7845;53.698;10.078;2023-02-28T14:40:55;102744.38;;;7.93;77.70
15487;BME280;7845;53.698;10.078;2023-02-28T14:43:26;102747.56;;;7.84;76.35
15487;BME280;7845;53.698;10.078;2023-02-28T14:45:58;102743.19;;;7.83;75.96
15487;BME280;7845;53.698;10.078;2023-02-28T14:48:24;102746.63;;;7.82;76.05
15487;BME280;7845;53.698;10.078;2023-02-28T14:50:53;102740.25;;;7.74;73.39
15487;BME280;7845;53.698;10.078;2023-02-28T14:53:21;102748.34;;;7.82;76.85
15487;BME280;7845;53.698;10.078;2023-02-28T14:55:48;102746.34;;;7.74;76.10
15487;BME280;7845;53.698;10.078;2023-02-28T14:58:30;102743.81;;;7.76;76.73
15487;BME280;7845;53.698;10.078;2023-02-28T15:00:58;102738.50;;;7.73;75.78
15487;BME280;7845;53.698;10.078;2023-02-28T15:03:31;102736.97;;;7.79;76.04